createdAt,value
2018-09-08T10:45:56.281Z,23.10
2018-09-08T10:48:26.630Z,21.30
2018-09-08T10:51:02.089Z,20.30
2018-09-08T10:53:32.794Z,20.00
2018-09-08T10:56:03.375Z,19.30
2018-09-08T10:58:33.703Z,19.40
2018-09-08T11:01:04.239Z,19.40
2018-09-08T11:03:34.812Z,19.20
2018-09-08T11:06:05.398Z,19.10
2018-09-08T11:08:35.404Z,19.10
2018-09-08T11:11:06.254Z,19.10
2018-09-08T11:13:36.950Z,19.40
2018-09-08T11:16:07.296Z,19.40
2018-09-08T11:18:37.935Z,19.50
2018-09-08T11:21:08.902Z,19.70
2018-09-08T11:23:38.843Z,19.60
2018-09-08T11:26:09.362Z,19.80
2018-09-08T11:28:39.930Z,19.60
2018-09-08T11:31:10.473Z,19.40
2018-09-08T11:33:40.458Z,19.50
2018-09-08T11:36:10.723Z,19.60
2018-09-08T11:38:43.475Z,20.20
2018-09-08T11:41:13.974Z,20.20
2018-09-08T11:43:44.527Z,20.10
2018-09-08T11:46:14.892Z,20.30
2018-09-08T11:48:45.460Z,21.00
2018-09-08T11:51:15.782Z,21.60
2018-09-08T11:53:46.102Z,20.80
2018-09-08T11:56:16.687Z,20.60
2018-09-08T11:58:47.126Z,20.70
2018-09-08T12:01:17.670Z,20.70
2018-09-08T12:03:48.359Z,20.70
2018-09-08T12:06:19.023Z,20.10
2018-09-08T12:08:49.706Z,20.10
2018-09-08T12:11:20.018Z,19.80
2018-09-08T12:13:50.873Z,19.60
2018-09-08T12:16:21.462Z,19.50
2018-09-08T12:18:52.249Z,19.20
2018-09-08T12:21:22.973Z,19.70
2018-09-08T12:23:52.958Z,20.10
2018-09-08T12:26:23.640Z,20.00
2018-09-08T12:28:54.338Z,20.10
2018-09-08T12:31:24.906Z,20.40
2018-09-08T12:33:55.733Z,20.50
2018-09-08T12:36:26.383Z,20.40
2018-09-08T12:38:57.258Z,20.20
2018-09-08T12:41:28.008Z,20.00
2018-09-08T12:43:58.638Z,19.70
2018-09-08T12:46:29.410Z,19.60
2018-09-08T12:48:59.246Z,19.60
2018-09-08T12:51:29.280Z,19.50
2018-09-08T12:53:59.587Z,19.80
2018-09-08T12:56:30.435Z,19.90
2018-09-08T12:59:01.005Z,19.90
2018-09-08T13:01:31.178Z,19.70
2018-09-08T13:04:01.717Z,19.60
2018-09-08T13:06:32.900Z,19.50
2018-09-08T13:09:04.379Z,19.40
2018-09-08T13:11:34.926Z,19.60
2018-09-08T13:14:05.926Z,19.50
2018-09-08T13:16:36.105Z,19.50
2018-09-08T13:19:06.662Z,19.40
2018-09-08T13:21:37.285Z,19.50
2018-09-08T13:24:07.417Z,19.60
2018-09-08T13:26:38.164Z,19.70
2018-09-08T13:29:09.297Z,19.60
2018-09-08T13:31:39.270Z,19.30
2018-09-08T13:34:09.710Z,19.30
2018-09-08T13:36:40.392Z,19.50
2018-09-08T13:39:10.704Z,19.60
2018-09-08T13:41:41.323Z,19.40
2018-09-08T13:44:11.891Z,19.40
2018-09-08T13:46:41.853Z,19.30
2018-09-08T13:49:12.427Z,19.20
2018-09-08T13:51:42.682Z,19.60
2018-09-08T13:54:12.500Z,19.40
2018-09-08T13:56:42.466Z,19.60
2018-09-08T13:59:13.270Z,19.50
2018-09-08T14:01:43.809Z,19.70
2018-09-08T14:04:14.216Z,19.80
2018-09-08T14:06:44.767Z,20.00
2018-09-08T14:09:15.090Z,20.20
2018-09-08T14:11:45.865Z,20.30
2018-09-08T14:14:16.175Z,20.30
2018-09-08T14:16:46.942Z,20.30
2018-09-08T14:19:17.331Z,20.40
2018-09-08T14:21:48.086Z,20.30
2018-09-08T14:24:18.981Z,20.20
2018-09-08T14:26:49.862Z,20.20
2018-09-08T14:29:20.206Z,20.50
2018-09-08T14:31:50.734Z,20.60
2018-09-08T14:34:21.618Z,20.50
2018-09-08T14:36:52.531Z,20.40
2018-09-08T14:39:23.602Z,20.60
2018-09-08T14:41:54.394Z,20.40
2018-09-08T14:44:25.019Z,20.50
2018-09-08T14:46:55.554Z,20.40
2018-09-08T14:49:26.457Z,20.00
2018-09-08T14:51:57.014Z,20.10
2018-09-08T14:54:27.574Z,20.10
2018-09-08T14:56:59.138Z,20.10
2018-09-08T14:59:30.398Z,20.20
2018-09-08T15:02:00.938Z,20.30
2018-09-08T15:04:31.613Z,20.40
2018-09-08T15:07:02.325Z,20.20
2018-09-08T15:09:32.887Z,19.80
2018-09-08T15:12:03.462Z,19.80
2018-09-08T15:14:34.221Z,19.90
2018-09-08T15:17:05.154Z,20.10
2018-09-08T15:19:35.755Z,20.20
2018-09-08T15:22:06.765Z,20.20
2018-09-08T15:24:37.410Z,20.30
2018-09-08T15:27:07.874Z,20.20
2018-09-08T15:29:38.490Z,20.10
2018-09-08T15:32:09.053Z,20.10
2018-09-08T15:34:39.640Z,20.00
2018-09-08T15:37:10.026Z,19.90
2018-09-08T15:39:40.590Z,20.10
2018-09-08T15:42:10.926Z,20.40
2018-09-08T15:44:41.471Z,20.40
2018-09-08T15:47:11.839Z,20.20
2018-09-08T15:49:42.423Z,20.50
2018-09-08T15:52:13.070Z,20.60
2018-09-08T15:54:43.631Z,20.40
2018-09-08T15:57:14.183Z,20.20
2018-09-08T15:59:44.754Z,20.10
2018-09-08T16:02:15.297Z,20.00
2018-09-08T16:04:45.857Z,20.10
2018-09-08T16:07:16.619Z,20.40
2018-09-08T16:09:47.214Z,20.40
2018-09-08T16:12:17.759Z,20.20
2018-09-08T16:14:48.330Z,20.20
2018-09-08T16:17:18.960Z,20.20
2018-09-08T16:19:48.960Z,20.00
2018-09-08T16:22:19.498Z,19.70
2018-09-08T16:24:49.506Z,19.80
2018-09-08T16:27:20.066Z,19.50
2018-09-08T16:29:50.630Z,19.70
2018-09-08T16:32:21.409Z,19.60
2018-09-08T16:34:52.578Z,19.60
2018-09-08T16:37:23.118Z,19.70
2018-09-08T16:39:53.914Z,19.80
2018-09-08T16:42:24.515Z,19.60
2018-09-08T16:44:54.518Z,19.50
2018-09-08T16:47:24.835Z,19.50
2018-09-08T16:49:54.930Z,19.50
2018-09-08T16:52:24.901Z,19.60
2018-09-08T16:54:55.386Z,19.60
2018-09-08T16:57:25.938Z,19.60
2018-09-08T16:59:56.734Z,19.60
2018-09-08T17:02:27.283Z,19.60
2018-09-08T17:04:57.292Z,19.60
2018-09-08T17:07:28.141Z,19.70
2018-09-08T17:09:58.878Z,19.70
2018-09-08T17:12:29.022Z,19.70
2018-09-08T17:14:59.704Z,19.80
2018-09-08T17:17:30.574Z,19.80
2018-09-08T17:20:01.186Z,19.70
2018-09-08T17:22:31.742Z,19.80
2018-09-08T17:25:02.305Z,20.00
2018-09-08T17:27:32.287Z,19.90
2018-09-08T17:30:02.629Z,19.70
2018-09-08T17:32:33.172Z,19.70
2018-09-08T17:35:03.742Z,19.80
2018-09-08T17:37:33.735Z,19.90
2018-09-08T17:40:04.331Z,19.90
2018-09-08T17:42:34.325Z,19.70
2018-09-08T17:45:04.682Z,19.70
2018-09-08T17:47:35.238Z,19.70
2018-09-08T17:50:05.930Z,19.80
2018-09-08T17:52:36.702Z,19.80
2018-09-08T17:55:07.234Z,19.70
2018-09-08T17:57:38.179Z,19.70
2018-09-08T18:00:09.006Z,19.70
2018-09-08T18:02:39.570Z,19.80
2018-09-08T18:05:10.769Z,19.80
2018-09-08T18:07:41.510Z,19.80
2018-09-08T18:10:12.081Z,19.90
2018-09-08T18:12:42.362Z,19.90
2018-09-08T18:15:12.911Z,19.90
2018-09-08T18:17:43.470Z,19.90
2018-09-08T18:20:14.034Z,19.80
2018-09-08T18:22:44.233Z,19.80
2018-09-08T18:25:15.048Z,19.80
2018-09-08T18:27:45.034Z,19.80
2018-09-08T18:30:15.595Z,19.70
2018-09-08T18:32:45.666Z,19.60
2018-09-08T18:35:16.035Z,19.60
2018-09-08T18:37:46.306Z,19.60
2018-09-08T18:40:16.310Z,19.60
2018-09-08T18:42:46.854Z,19.60
2018-09-08T18:45:17.192Z,19.60
2018-09-08T18:47:47.550Z,19.40
2018-09-08T18:50:17.682Z,19.40
2018-09-08T18:52:48.230Z,19.40
2018-09-08T18:55:18.882Z,19.30
2018-09-08T18:57:48.686Z,19.40
2018-09-08T19:00:19.706Z,19.40
2018-09-08T19:02:49.709Z,19.30
2018-09-08T19:05:19.732Z,19.30
2018-09-08T19:07:50.582Z,19.20
2018-09-08T19:10:20.593Z,19.20
2018-09-08T19:12:50.822Z,19.20
2018-09-08T19:15:20.810Z,19.30
2018-09-08T19:17:51.066Z,19.30
2018-09-08T19:20:26.279Z,19.30
2018-09-08T19:22:56.260Z,19.20
2018-09-08T19:25:26.120Z,19.20
2018-09-08T19:27:56.104Z,19.20
2018-09-08T19:30:26.890Z,19.30
2018-09-08T19:32:57.089Z,19.30
2018-09-08T19:35:32.518Z,19.30
2018-09-08T19:38:02.482Z,19.30
2018-09-08T19:40:37.601Z,19.20
2018-09-08T19:43:07.615Z,19.20
2018-09-08T19:45:38.523Z,19.20
2018-09-08T19:48:12.436Z,19.20
2018-09-08T19:50:42.979Z,19.20
2018-09-08T19:53:18.240Z,19.20
2018-09-08T19:55:49.204Z,19.10
2018-09-08T19:58:24.570Z,19.10
2018-09-08T20:00:54.659Z,19.10
2018-09-08T20:03:24.950Z,19.10
2018-09-08T20:05:55.493Z,19.10
2018-09-08T20:08:25.474Z,19.10
2018-09-08T20:10:56.019Z,19.10
2018-09-08T20:13:26.111Z,19.10
2018-09-08T20:15:56.690Z,19.20
2018-09-08T20:18:26.458Z,19.10
2018-09-08T20:20:56.498Z,19.00
2018-09-08T20:23:27.051Z,19.00
2018-09-08T20:25:57.398Z,19.00
2018-09-08T20:28:27.535Z,19.00
2018-09-08T20:30:57.894Z,19.00
2018-09-08T20:33:28.626Z,19.00
2018-09-08T20:35:58.626Z,19.00
2018-09-08T20:38:30.843Z,19.00
2018-09-08T20:41:02.350Z,18.90
2018-09-08T20:43:32.350Z,18.90
2018-09-08T20:46:02.789Z,18.90
2018-09-08T20:48:32.545Z,18.90
2018-09-08T20:51:02.526Z,18.80
2018-09-08T20:53:32.507Z,18.70
2018-09-08T20:56:02.530Z,18.70
2018-09-08T20:58:32.516Z,18.70
2018-09-08T21:01:02.292Z,18.70
2018-09-08T21:03:32.537Z,18.70
2018-09-08T21:06:03.362Z,18.70
2018-09-08T21:08:36.710Z,18.70
2018-09-08T21:11:07.669Z,18.60
2018-09-08T21:13:37.437Z,18.50
2018-09-08T21:16:08.214Z,18.60
2018-09-08T21:18:38.449Z,18.60
2018-09-08T21:21:08.449Z,18.70
2018-09-08T21:23:38.991Z,18.70
2018-09-08T21:26:09.271Z,18.60
2018-09-08T21:28:39.250Z,18.50
2018-09-08T21:31:09.247Z,18.50
2018-09-08T21:33:39.402Z,18.50
2018-09-08T21:36:10.218Z,18.40
2018-09-08T21:38:40.794Z,18.30
2018-09-08T21:41:10.814Z,18.40
2018-09-08T21:43:40.816Z,18.40
2018-09-08T21:46:11.418Z,18.40
2018-09-08T21:48:41.423Z,18.40
2018-09-08T21:51:11.976Z,18.40
2018-09-08T21:53:41.962Z,18.50
2018-09-08T21:56:11.995Z,18.60
2018-09-08T21:58:42.362Z,18.60
2018-09-08T22:01:18.258Z,18.60
2018-09-08T22:03:49.080Z,18.60
2018-09-08T22:06:20.054Z,18.60
2018-09-08T22:08:50.063Z,18.60
2018-09-08T22:11:20.664Z,18.60
2018-09-08T22:13:51.398Z,18.60
2018-09-08T22:16:21.390Z,18.60
2018-09-08T22:18:51.386Z,18.50
2018-09-08T22:21:21.374Z,18.50
2018-09-08T22:23:51.133Z,18.50
2018-09-08T22:26:21.186Z,18.50
2018-09-08T22:28:51.518Z,18.50
2018-09-08T22:31:22.086Z,18.50
2018-09-08T22:33:51.858Z,18.50
2018-09-08T22:36:22.190Z,18.50
2018-09-08T22:38:52.242Z,18.60
2018-09-08T22:41:22.975Z,18.60
2018-09-08T22:43:52.802Z,18.60
2018-09-08T22:46:22.803Z,18.60
2018-09-08T22:48:52.585Z,18.50
2018-09-08T22:51:22.591Z,18.60
2018-09-08T22:53:52.550Z,18.50
2018-09-08T22:56:22.539Z,18.50
2018-09-08T22:58:52.854Z,18.50
2018-09-08T23:01:22.850Z,18.50
2018-09-08T23:03:52.614Z,18.30
2018-09-08T23:06:22.802Z,18.30
2018-09-08T23:08:52.836Z,18.30
2018-09-08T23:11:22.864Z,18.30
2018-09-08T23:13:53.264Z,18.20
2018-09-08T23:16:23.845Z,18.20
2018-09-08T23:18:54.151Z,18.10
2018-09-08T23:21:24.936Z,18.20
2018-09-08T23:23:54.943Z,18.30
2018-09-08T23:26:25.509Z,18.20
2018-09-08T23:28:56.053Z,18.10
2018-09-08T23:31:26.313Z,18.20
2018-09-08T23:33:56.306Z,18.30
2018-09-08T23:36:26.090Z,18.30
2018-09-08T23:38:56.094Z,18.20
2018-09-08T23:41:26.298Z,18.20
2018-09-08T23:43:56.846Z,18.20
2018-09-08T23:46:26.614Z,18.30
2018-09-08T23:48:56.630Z,18.30
2018-09-08T23:51:26.602Z,18.40
2018-09-08T23:53:56.619Z,18.40
2018-09-08T23:56:26.594Z,18.50
2018-09-08T23:58:56.882Z,18.50
